SBOSBO RIX / EVRA
Speedbird OnlineSpeedbird Online RIX / EVRA

Riga International Airport
13:27 22°C

Location Riga, Latvia
Latitude: 56.92359924316406
Longitude: 23.971099853515625
Local Time 13:27 on 17 Jun 2024
UTC +3 hours (Europe/Riga)
Currency £1 equals EUR 1.19
METAR EVRA 170950Z 36004KT 330V040 9999 FEW052CB 22/17 Q1011 NOSIG
TAF TAF EVRA 170801Z 1709/1809 30005KT CAVOK TEMPO 1709/1716 VRB25KT 3000 TSRA BKN020CB TEMPO 1800/1803 4000 BR PROB40 TEMPO 1800/1803 0700 FG
Weather As Of 17 Jun 2024 13:27
Description Few clouds
Wind 9 km/h from North (340°)
Cloud Cover 20%
Precipitation Rain: none, Snow: none
Sunrise 04:29
Sunset 22:20
NOTAM 4 active NOTAM
Rotations During the last 90 days there were
32 flights from LHR
33 flights to LHR
Lounges Primeclass Business Lounge, Main Terminal
Web Airport Website | Wikipedia
Codes IATA: RIX
ICAO: EVRA
Altitude 11 Meter / 36 Feet
Distance 1,653 KM / 1,027 Miles
from London.
Runways
RunwayLength (m)Surface
183200Asphalt
363200Asphalt
Radio
TypeDescriptionFrequency
APPAPP129.925
ATISATIS121.2
GNDRiga Ground118.8
MISCRiga Apron131.6
TWRTWR118.1
Live ATC



Support Speedbird Online

© 2017-2024 Speedbird Online